sensor_id;sensor_type;location;lat;lon;timestamp;pressure;altitude;pressure_sealevel;temperature;humidity
19748;BME280;10032;51.386;12.516;2023-02-28T00:00:15;101632.00;;;1.55;100.00
19748;BME280;10032;51.386;12.516;2023-02-28T00:02:42;101632.69;;;1.57;100.00
19748;BME280;10032;51.386;12.516;2023-02-28T00:05:10;101627.50;;;1.56;100.00
19748;BME280;10032;51.386;12.516;2023-02-28T00:07:37;101627.03;;;1.60;100.00
19748;BME280;10032;51.386;12.516;2023-02-28T00:10:04;101634.88;;;1.62;100.00
19748;BME280;10032;51.386;12.516;2023-02-28T00:12:29;101627.03;;;1.60;100.00
19748;BME280;10032;51.386;12.516;2023-02-28T00:14:55;101630.03;;;1.57;100.00
19748;BME280;10032;51.386;12.516;2023-02-28T00:17:20;101626.88;;;1.62;100.00
19748;BME280;10032;51.386;12.516;2023-02-28T00:19:49;101629.31;;;1.55;100.00
19748;BME280;10032;51.386;12.516;2023-02-28T00:22:16;101627.50;;;1.56;100.00
19748;BME280;10032;51.386;12.516;2023-02-28T00:24:41;101628.88;;;1.60;100.00
19748;BME280;10032;51.386;12.516;2023-02-28T00:27:07;101631.69;;;1.58;100.00
19748;BME280;10032;51.386;12.516;2023-02-28T00:29:32;101627.22;;;1.59;100.00
19748;BME280;10032;51.386;12.516;2023-02-28T00:31:58;101626.34;;;1.58;100.00
19748;BME280;10032;51.386;12.516;2023-02-28T00:34:23;101631.69;;;1.58;100.00
19748;BME280;10032;51.386;12.516;2023-02-28T00:36:49;101621.88;;;1.59;100.00
19748;BME280;10032;51.386;12.516;2023-02-28T00:39:14;101616.16;;;1.54;100.00
19748;BME280;10032;51.386;12.516;2023-02-28T00:41:40;101627.00;;;1.52;100.00
19748;BME280;10032;51.386;12.516;2023-02-28T00:44:05;101619.97;;;1.51;100.00
19748;BME280;10032;51.386;12.516;2023-02-28T00:46:31;101625.63;;;1.48;100.00
19748;BME280;10032;51.386;12.516;2023-02-28T00:48:56;101626.47;;;1.49;100.00
19748;BME280;10032;51.386;12.516;2023-02-28T00:51:21;101626.13;;;1.52;100.00
19748;BME280;10032;51.386;12.516;2023-02-28T00:53:47;101625.84;;;1.55;100.00
19748;BME280;10032;51.386;12.516;2023-02-28T00:56:12;101628.50;;;1.55;100.00
19748;BME280;10032;51.386;12.516;2023-02-28T00:58:39;101621.94;;;1.49;100.00
19748;BME280;10032;51.386;12.516;2023-02-28T01:01:05;101621.78;;;1.51;100.00
19748;BME280;10032;51.386;12.516;2023-02-28T01:03:30;101621.31;;;1.55;100.00
19748;BME280;10032;51.386;12.516;2023-02-28T01:05:56;101627.34;;;1.57;100.00
19748;BME280;10032;51.386;12.516;2023-02-28T01:08:21;101626.50;;;1.57;100.00
19748;BME280;10032;51.386;12.516;2023-02-28T01:10:47;101623.31;;;1.53;100.00
19748;BME280;10032;51.386;12.516;2023-02-28T01:13:13;101627.59;;;1.46;100.00
19748;BME280;10032;51.386;12.516;2023-02-28T01:15:43;101625.75;;;1.47;100.00
19748;BME280;10032;51.386;12.516;2023-02-28T01:18:10;101625.94;;;1.45;100.00
19748;BME280;10032;51.386;12.516;2023-02-28T01:20:39;101624.41;;;1.43;100.00
19748;BME280;10032;51.386;12.516;2023-02-28T01:23:04;101621.94;;;1.49;100.00
19748;BME280;10032;51.386;12.516;2023-02-28T01:25:29;101614.31;;;1.54;100.00
19748;BME280;10032;51.386;12.516;2023-02-28T01:27:55;101613.63;;;1.52;100.00
19748;BME280;10032;51.386;12.516;2023-02-28T01:30:20;101610.97;;;1.52;100.00
19748;BME280;10032;51.386;12.516;2023-02-28T01:32:46;101613.47;;;1.54;100.00
19748;BME280;10032;51.386;12.516;2023-02-28T01:35:11;101611.63;;;1.54;100.00
19748;BME280;10032;51.386;12.516;2023-02-28T01:37:37;101618.31;;;1.50;100.00
19748;BME280;10032;51.386;12.516;2023-02-28T01:40:03;101628.44;;;1.47;100.00
19748;BME280;10032;51.386;12.516;2023-02-28T01:42:28;101618.91;;;1.44;100.00
19748;BME280;10032;51.386;12.516;2023-02-28T01:45:00;101616.56;;;1.41;100.00
19748;BME280;10032;51.386;12.516;2023-02-28T01:47:33;101610.22;;;1.42;100.00
19748;BME280;10032;51.386;12.516;2023-02-28T01:50:02;101610.59;;;1.47;100.00
19748;BME280;10032;51.386;12.516;2023-02-28T01:52:30;101605.41;;;1.46;100.00
19748;BME280;10032;51.386;12.516;2023-02-28T01:54:59;101610.88;;;1.44;100.00
19748;BME280;10032;51.386;12.516;2023-02-28T01:57:33;101605.41;;;1.46;100.00
19748;BME280;10032;51.386;12.516;2023-02-28T02:00:21;101603.59;;;1.46;100.00
19748;BME280;10032;51.386;12.516;2023-02-28T02:02:51;101606.25;;;1.46;100.00
19748;BME280;10032;51.386;12.516;2023-02-28T02:05:24;101596.72;;;1.44;100.00
19748;BME280;10032;51.386;12.516;2023-02-28T02:08:26;101595.56;;;1.46;100.00
19748;BME280;10032;51.386;12.516;2023-02-28T02:10:59;101603.88;;;1.43;100.00
19748;BME280;10032;51.386;12.516;2023-02-28T02:16:17;101598.50;;;1.35;100.00
19748;BME280;10032;51.386;12.516;2023-02-28T02:19:00;101600.09;;;1.28;100.00
19748;BME280;10032;51.386;12.516;2023-02-28T02:27:18;101586.31;;;1.15;100.00
19748;BME280;10032;51.386;12.516;2023-02-28T02:42:59;101599.94;;;0.95;100.00
19748;BME280;10032;51.386;12.516;2023-02-28T02:45:37;101594.41;;;0.88;100.00
19748;BME280;10032;51.386;12.516;2023-02-28T02:48:06;101591.34;;;0.83;100.00
19748;BME280;10032;51.386;12.516;2023-02-28T02:50:37;101599.63;;;0.80;100.00
19748;BME280;10032;51.386;12.516;2023-02-28T02:53:05;101591.63;;;0.80;100.00
19748;BME280;10032;51.386;12.516;2023-02-28T02:55:36;101593.78;;;0.77;100.00
19748;BME280;10032;51.386;12.516;2023-02-28T02:58:05;101599.56;;;0.72;100.00
19748;BME280;10032;51.386;12.516;2023-02-28T03:00:44;101603.81;;;0.65;100.00
19748;BME280;10032;51.386;12.516;2023-02-28T03:03:13;101590.78;;;0.62;100.00
19748;BME280;10032;51.386;12.516;2023-02-28T03:05:46;101595.00;;;0.65;100.00
19748;BME280;10032;51.386;12.516;2023-02-28T03:08:12;101593.00;;;0.67;100.00
19748;BME280;10032;51.386;12.516;2023-02-28T03:10:46;101597.78;;;0.63;100.00
19748;BME280;10032;51.386;12.516;2023-02-28T03:19:12;101595.75;;;0.57;100.00
19748;BME280;10032;51.386;12.516;2023-02-28T03:24:11;101597.88;;;0.54;100.00
19748;BME280;10032;51.386;12.516;2023-02-28T03:26:50;101603.06;;;0.55;100.00
19748;BME280;10032;51.386;12.516;2023-02-28T03:29:29;101604.03;;;0.54;100.00
19748;BME280;10032;51.386;12.516;2023-02-28T03:34:38;101603.06;;;0.55;100.00
19748;BME280;10032;51.386;12.516;2023-02-28T03:37:13;101608.00;;;0.50;100.00
19748;BME280;10032;51.386;12.516;2023-02-28T03:39:56;101609.28;;;0.46;100.00
19748;BME280;10032;51.386;12.516;2023-02-28T03:42:26;101608.97;;;0.49;100.00
19748;BME280;10032;51.386;12.516;2023-02-28T03:45:25;101601.97;;;0.48;100.00
19748;BME280;10032;51.386;12.516;2023-02-28T03:50:34;101606.63;;;0.46;100.00
19748;BME280;10032;51.386;12.516;2023-02-28T03:53:21;101608.28;;;0.47;100.00
19748;BME280;10032;51.386;12.516;2023-02-28T03:55:54;101610.66;;;0.50;100.00
19748;BME280;10032;51.386;12.516;2023-02-28T03:58:42;101610.34;;;0.53;100.00
19748;BME280;10032;51.386;12.516;2023-02-28T04:01:15;101613.00;;;0.53;100.00
19748;BME280;10032;51.386;12.516;2023-02-28T04:03:42;101613.16;;;0.52;100.00
19748;BME280;10032;51.386;12.516;2023-02-28T04:06:14;101614.84;;;0.53;100.00
19748;BME280;10032;51.386;12.516;2023-02-28T04:08:40;101612.88;;;0.55;100.00
19748;BME280;10032;51.386;12.516;2023-02-28T04:11:42;101610.06;;;0.56;100.00
19748;BME280;10032;51.386;12.516;2023-02-28T04:14:08;101612.34;;;0.51;100.00
19748;BME280;10032;51.386;12.516;2023-02-28T04:16:36;101613.16;;;0.52;100.00
19748;BME280;10032;51.386;12.516;2023-02-28T04:19:03;101614.00;;;0.52;100.00
19748;BME280;10032;51.386;12.516;2023-02-28T04:21:45;101610.66;;;0.50;100.00
19748;BME280;10032;51.386;12.516;2023-02-28T04:24:13;101616.28;;;0.47;100.00
19748;BME280;10032;51.386;12.516;2023-02-28T04:26:44;101617.28;;;0.46;100.00
19748;BME280;10032;51.386;12.516;2023-02-28T04:29:12;101610.28;;;0.45;100.00
19748;BME280;10032;51.386;12.516;2023-02-28T04:31:38;101619.09;;;0.46;100.00
19748;BME280;10032;51.386;12.516;2023-02-28T04:34:03;101623.88;;;0.42;100.00
19748;BME280;10032;51.386;12.516;2023-02-28T04:36:29;101627.53;;;0.41;100.00
19748;BME280;10032;51.386;12.516;2023-02-28T04:38:54;101623.34;;;0.39;100.00
19748;BME280;10032;51.386;12.516;2023-02-28T04:41:21;101618.53;;;0.42;100.00
19748;BME280;10032;51.386;12.516;2023-02-28T04:43:48;101617.00;;;0.40;100.00
19748;BME280;10032;51.386;12.516;2023-02-28T04:46:13;101624.16;;;0.39;100.00
19748;BME280;10032;51.386;12.516;2023-02-28T04:48:39;101624.72;;;0.43;100.00
19748;BME280;10032;51.386;12.516;2023-02-28T04:51:07;101630.06;;;0.43;100.00
19748;BME280;10032;51.386;12.516;2023-02-28T04:53:34;101627.53;;;0.41;100.00
19748;BME280;10032;51.386;12.516;2023-02-28T04:56:00;101626.41;;;0.44;100.00
19748;BME280;10032;51.386;12.516;2023-02-28T04:58:26;101629.22;;;0.42;100.00
19748;BME280;10032;51.386;12.516;2023-02-28T05:00:53;101625.69;;;0.42;100.00
19748;BME280;10032;51.386;12.516;2023-02-28T05:03:20;101631.19;;;0.40;100.00
19748;BME280;10032;51.386;12.516;2023-02-28T05:05:47;101627.81;;;0.38;100.00
19748;BME280;10032;51.386;12.516;2023-02-28T05:08:12;101632.06;;;0.31;100.00
19748;BME280;10032;51.386;12.516;2023-02-28T05:10:38;101624.34;;;0.28;100.00
19748;BME280;10032;51.386;12.516;2023-02-28T05:13:04;101630.41;;;0.30;100.00
19748;BME280;10032;51.386;12.516;2023-02-28T05:15:29;101634.75;;;0.31;100.00
19748;BME280;10032;51.386;12.516;2023-02-28T05:17:55;101630.09;;;0.33;100.00
19748;BME280;10032;51.386;12.516;2023-02-28T05:20:20;101642.72;;;0.31;100.00
19748;BME280;10032;51.386;12.516;2023-02-28T05:22:46;101633.06;;;0.30;100.00
19748;BME280;10032;51.386;12.516;2023-02-28T05:25:19;101642.06;;;0.29;100.00
19748;BME280;10032;51.386;12.516;2023-02-28T05:27:45;101629.00;;;0.26;100.00
19748;BME280;10032;51.386;12.516;2023-02-28T05:30:11;101638.13;;;0.24;100.00
19748;BME280;10032;51.386;12.516;2023-02-28T05:32:40;101634.25;;;0.18;100.00
19748;BME280;10032;51.386;12.516;2023-02-28T05:35:09;101642.78;;;0.12;100.00
19748;BME280;10032;51.386;12.516;2023-02-28T05:37:35;101645.78;;;0.09;100.00
19748;BME280;10032;51.386;12.516;2023-02-28T05:40:01;101645.66;;;0.01;100.00
19748;BME280;10032;51.386;12.516;2023-02-28T05:42:26;101647.50;;;0.01;100.00
19748;BME280;10032;51.386;12.516;2023-02-28T05:44:52;101645.81;;;0.00;100.00
19748;BME280;10032;51.386;12.516;2023-02-28T05:47:17;101641.63;;;-0.03;100.00
19748;BME280;10032;51.386;12.516;2023-02-28T05:49:43;101652.28;;;-0.03;100.00
19748;BME280;10032;51.386;12.516;2023-02-28T05:52:08;101649.59;;;-0.03;100.00
19748;BME280;10032;51.386;12.516;2023-02-28T05:54:34;101656.59;;;-0.02;100.00
19748;BME280;10032;51.386;12.516;2023-02-28T05:56:59;101654.34;;;-0.06;100.00
19748;BME280;10032;51.386;12.516;2023-02-28T05:59:24;101655.47;;;-0.09;100.00
19748;BME280;10032;51.386;12.516;2023-02-28T06:01:50;101660.53;;;-0.06;100.00
19748;BME280;10032;51.386;12.516;2023-02-28T06:04:19;101659.69;;;-0.06;100.00
19748;BME280;10032;51.386;12.516;2023-02-28T06:06:45;101665.88;;;-0.06;100.00
19748;BME280;10032;51.386;12.516;2023-02-28T06:09:11;101664.47;;;-0.10;100.00
19748;BME280;10032;51.386;12.516;2023-02-28T06:11:37;101670.78;;;-0.11;100.00
19748;BME280;10032;51.386;12.516;2023-02-28T06:14:03;101669.09;;;-0.12;100.00
19748;BME280;10032;51.386;12.516;2023-02-28T06:16:31;101683.41;;;-0.13;100.00
19748;BME280;10032;51.386;12.516;2023-02-28T06:18:58;101679.88;;;-0.13;100.00
19748;BME280;10032;51.386;12.516;2023-02-28T06:21:24;101671.50;;;-0.18;100.00
19748;BME280;10032;51.386;12.516;2023-02-28T06:23:50;101684.25;;;-0.22;100.00
19748;BME280;10032;51.386;12.516;2023-02-28T06:26:16;101687.75;;;-0.31;100.00
19748;BME280;10032;51.386;12.516;2023-02-28T06:28:41;101697.44;;;-0.30;100.00
19748;BME280;10032;51.386;12.516;2023-02-28T06:31:08;101699.13;;;-0.28;100.00
19748;BME280;10032;51.386;12.516;2023-02-28T06:33:35;101700.09;;;-0.30;100.00
19748;BME280;10032;51.386;12.516;2023-02-28T06:36:02;101700.09;;;-0.30;100.00
19748;BME280;10032;51.386;12.516;2023-02-28T06:38:27;101706.13;;;-0.28;100.00
19748;BME280;10032;51.386;12.516;2023-02-28T06:40:57;101703.47;;;-0.28;100.00
19748;BME280;10032;51.386;12.516;2023-02-28T06:43:23;101696.16;;;-0.26;100.00
19748;BME280;10032;51.386;12.516;2023-02-28T06:45:49;101705.25;;;-0.19;100.00
19748;BME280;10032;51.386;12.516;2023-02-28T06:48:15;101706.97;;;-0.17;100.00
19748;BME280;10032;51.386;12.516;2023-02-28T06:50:41;101706.97;;;-0.17;100.00
19748;BME280;10032;51.386;12.516;2023-02-28T06:53:06;101707.50;;;-0.14;100.00
19748;BME280;10032;51.386;12.516;2023-02-28T06:55:32;101709.03;;;-0.12;100.00
19748;BME280;10032;51.386;12.516;2023-02-28T06:57:58;101718.72;;;-0.11;100.00
19748;BME280;10032;51.386;12.516;2023-02-28T07:00:24;101716.59;;;-0.07;100.00
19748;BME280;10032;51.386;12.516;2023-02-28T07:02:50;101711.41;;;-0.09;100.00
19748;BME280;10032;51.386;12.516;2023-02-28T07:05:15;101715.78;;;-0.08;100.00
19748;BME280;10032;51.386;12.516;2023-02-28T07:07:41;101721.50;;;-0.03;100.00
19748;BME280;10032;51.386;12.516;2023-02-28T07:10:12;101721.63;;;0.05;100.00
19748;BME280;10032;51.386;12.516;2023-02-28T07:12:39;101718.38;;;0.11;100.00
19748;BME280;10032;51.386;12.516;2023-02-28T07:15:05;101728.75;;;0.14;100.00
19748;BME280;10032;51.386;12.516;2023-02-28T07:17:31;101728.31;;;0.19;100.00
19748;BME280;10032;51.386;12.516;2023-02-28T07:19:56;101726.19;;;0.22;100.00
19748;BME280;10032;51.386;12.516;2023-02-28T07:22:22;101730.94;;;0.28;100.00
19748;BME280;10032;51.386;12.516;2023-02-28T07:24:47;101732.47;;;0.31;100.00
19748;BME280;10032;51.386;12.516;2023-02-28T07:27:13;101722.94;;;0.38;100.00
19748;BME280;10032;51.386;12.516;2023-02-28T07:29:49;101731.16;;;0.44;100.00
19748;BME280;10032;51.386;12.516;2023-02-28T07:32:14;101735.63;;;0.53;100.00
19748;BME280;10032;51.386;12.516;2023-02-28T07:34:40;101725.63;;;0.65;100.00
19748;BME280;10032;51.386;12.516;2023-02-28T07:37:05;101731.91;;;0.73;100.00
19748;BME280;10032;51.386;12.516;2023-02-28T07:39:31;101735.66;;;0.80;100.00
19748;BME280;10032;51.386;12.516;2023-02-28T07:41:56;101726.78;;;0.89;100.00
19748;BME280;10032;51.386;12.516;2023-02-28T07:44:21;101736.63;;;1.06;100.00
19748;BME280;10032;51.386;12.516;2023-02-28T07:46:47;101736.41;;;1.17;100.00
19748;BME280;10032;51.386;12.516;2023-02-28T07:49:12;101735.81;;;1.23;100.00
19748;BME280;10032;51.386;12.516;2023-02-28T07:51:38;101732.56;;;1.29;100.00
19748;BME280;10032;51.386;12.516;2023-02-28T07:54:03;101732.63;;;1.37;100.00
19748;BME280;10032;51.386;12.516;2023-02-28T07:56:29;101734.06;;;1.49;100.00
19748;BME280;10032;51.386;12.516;2023-02-28T07:58:54;101734.84;;;1.59;100.00
19748;BME280;10032;51.386;12.516;2023-02-28T08:01:20;101736.22;;;1.63;100.00
19748;BME280;10032;51.386;12.516;2023-02-28T08:03:45;101736.13;;;1.73;100.00
19748;BME280;10032;51.386;12.516;2023-02-28T08:06:22;101733.31;;;1.92;100.00
19748;BME280;10032;51.386;12.516;2023-02-28T08:08:48;101727.94;;;2.09;100.00
19748;BME280;10032;51.386;12.516;2023-02-28T08:11:14;101725.03;;;2.28;100.00
19748;BME280;10032;51.386;12.516;2023-02-28T08:13:41;101739.13;;;2.38;100.00
19748;BME280;10032;51.386;12.516;2023-02-28T08:16:09;101727.84;;;2.52;100.00
19748;BME280;10032;51.386;12.516;2023-02-28T08:18:35;101732.94;;;2.63;100.00
19748;BME280;10032;51.386;12.516;2023-02-28T08:21:09;101727.97;;;2.76;100.00
19748;BME280;10032;51.386;12.516;2023-02-28T08:23:35;101729.00;;;2.83;100.00
19748;BME280;10032;51.386;12.516;2023-02-28T08:26:00;101716.31;;;2.85;100.00
19748;BME280;10032;51.386;12.516;2023-02-28T08:28:26;101724.53;;;2.92;100.00
19748;BME280;10032;51.386;12.516;2023-02-28T08:30:51;101722.06;;;2.98;100.00
19748;BME280;10032;51.386;12.516;2023-02-28T08:33:17;101722.72;;;3.08;100.00
19748;BME280;10032;51.386;12.516;2023-02-28T08:35:42;101723.25;;;3.12;100.00
19748;BME280;10032;51.386;12.516;2023-02-28T08:38:08;101734.47;;;3.15;100.00
19748;BME280;10032;51.386;12.516;2023-02-28T08:40:33;101735.34;;;3.32;100.00
19748;BME280;10032;51.386;12.516;2023-02-28T08:42:58;101732.84;;;3.30;100.00
19748;BME280;10032;51.386;12.516;2023-02-28T08:45:25;101726.84;;;3.44;100.00
19748;BME280;10032;51.386;12.516;2023-02-28T08:47:50;101737.72;;;3.51;100.00
19748;BME280;10032;51.386;12.516;2023-02-28T08:50:17;101725.69;;;3.63;100.00
19748;BME280;10032;51.386;12.516;2023-02-28T08:52:43;101736.28;;;3.72;100.00
19748;BME280;10032;51.386;12.516;2023-02-28T08:55:09;101726.88;;;3.76;100.00
19748;BME280;10032;51.386;12.516;2023-02-28T08:57:35;101739.28;;;3.77;100.00
19748;BME280;10032;51.386;12.516;2023-02-28T09:00:00;101729.22;;;3.87;100.00
19748;BME280;10032;51.386;12.516;2023-02-28T09:02:30;101742.97;;;3.84;100.00
19748;BME280;10032;51.386;12.516;2023-02-28T09:04:56;101747.34;;;3.93;100.00
19748;BME280;10032;51.386;12.516;2023-02-28T09:07:21;101732.75;;;3.96;100.00
19748;BME280;10032;51.386;12.516;2023-02-28T09:09:47;101728.53;;;4.01;98.84
19748;BME280;10032;51.386;12.516;2023-02-28T09:12:26;101730.38;;;4.01;94.91
19748;BME280;10032;51.386;12.516;2023-02-28T09:14:52;101736.06;;;4.06;94.13
19748;BME280;10032;51.386;12.516;2023-02-28T09:17:18;101738.25;;;4.02;93.82
19748;BME280;10032;51.386;12.516;2023-02-28T09:19:44;101743.28;;;4.13;94.60
19748;BME280;10032;51.386;12.516;2023-02-28T09:22:10;101737.06;;;4.29;95.24
19748;BME280;10032;51.386;12.516;2023-02-28T09:24:37;101738.06;;;4.36;95.35
19748;BME280;10032;51.386;12.516;2023-02-28T09:27:03;101739.72;;;4.37;90.95
19748;BME280;10032;51.386;12.516;2023-02-28T09:29:29;101742.94;;;4.32;86.30
19748;BME280;10032;51.386;12.516;2023-02-28T09:31:54;101741.34;;;4.62;91.12
19748;BME280;10032;51.386;12.516;2023-02-28T09:34:21;101739.84;;;4.59;87.44
19748;BME280;10032;51.386;12.516;2023-02-28T09:36:46;101739.47;;;4.70;89.00
19748;BME280;10032;51.386;12.516;2023-02-28T09:39:12;101736.31;;;4.67;85.60
19748;BME280;10032;51.386;12.516;2023-02-28T09:41:43;101740.16;;;4.72;83.10
19748;BME280;10032;51.386;12.516;2023-02-28T09:44:42;101735.25;;;5.14;89.52
19748;BME280;10032;51.386;12.516;2023-02-28T09:47:30;101737.69;;;4.93;81.68
19748;BME280;10032;51.386;12.516;2023-02-28T09:50:52;101737.66;;;5.09;83.69
19748;BME280;10032;51.386;12.516;2023-02-28T09:52:52;101740.03;;;5.04;80.41
19748;BME280;10032;51.386;12.516;2023-02-28T09:58:00;101731.22;;;5.18;81.34
19748;BME280;10032;51.386;12.516;2023-02-28T10:00:39;101741.16;;;5.40;80.08
19748;BME280;10032;51.386;12.516;2023-02-28T10:08:30;101736.88;;;5.54;77.03
19748;BME280;10032;51.386;12.516;2023-02-28T10:11:01;101722.06;;;5.58;74.72
19748;BME280;10032;51.386;12.516;2023-02-28T10:16:34;101735.59;;;5.95;76.00
19748;BME280;10032;51.386;12.516;2023-02-28T10:19:11;101730.97;;;6.03;76.21
19748;BME280;10032;51.386;12.516;2023-02-28T10:22:05;101739.63;;;6.13;76.42
19748;BME280;10032;51.386;12.516;2023-02-28T10:24:51;101734.41;;;5.97;70.97
19748;BME280;10032;51.386;12.516;2023-02-28T10:27:18;101736.06;;;5.98;72.49
19748;BME280;10032;51.386;12.516;2023-02-28T10:29:46;101725.44;;;6.19;74.32
19748;BME280;10032;51.386;12.516;2023-02-28T10:32:17;101735.38;;;6.04;71.38
19748;BME280;10032;51.386;12.516;2023-02-28T10:34:43;101731.50;;;5.76;69.53
19748;BME280;10032;51.386;12.516;2023-02-28T10:37:10;101737.03;;;6.05;73.57
19748;BME280;10032;51.386;12.516;2023-02-28T10:39:39;101723.03;;;6.10;71.21
19748;BME280;10032;51.386;12.516;2023-02-28T10:42:27;101715.66;;;6.26;73.75
19748;BME280;10032;51.386;12.516;2023-02-28T10:45:16;101722.16;;;6.46;71.78
19748;BME280;10032;51.386;12.516;2023-02-28T11:06:56;101693.03;;;6.64;67.02
19748;BME280;10032;51.386;12.516;2023-02-28T11:09:34;101696.69;;;6.92;70.45
19748;BME280;10032;51.386;12.516;2023-02-28T11:12:02;101697.09;;;6.60;63.56
19748;BME280;10032;51.386;12.516;2023-02-28T11:14:31;101690.22;;;6.72;68.30
19748;BME280;10032;51.386;12.516;2023-02-28T11:17:11;101693.91;;;6.86;66.36
19748;BME280;10032;51.386;12.516;2023-02-28T11:19:43;101691.50;;;6.91;65.83
19748;BME280;10032;51.386;12.516;2023-02-28T11:22:09;101680.00;;;6.82;65.39
19748;BME280;10032;51.386;12.516;2023-02-28T11:24:44;101680.72;;;7.05;66.14
19748;BME280;10032;51.386;12.516;2023-02-28T11:27:51;101680.22;;;7.16;62.22
19748;BME280;10032;51.386;12.516;2023-02-28T11:30:39;101685.91;;;6.92;62.11
19748;BME280;10032;51.386;12.516;2023-02-28T11:33:29;101680.34;;;7.29;66.91
19748;BME280;10032;51.386;12.516;2023-02-28T11:35:59;101684.34;;;7.33;64.56
19748;BME280;10032;51.386;12.516;2023-02-28T11:38:26;101690.84;;;7.39;63.70
19748;BME280;10032;51.386;12.516;2023-02-28T11:53:55;101679.47;;;7.64;63.12
19748;BME280;10032;51.386;12.516;2023-02-28T12:02:10;101667.81;;;7.22;58.22
19748;BME280;10032;51.386;12.516;2023-02-28T12:07:51;101662.06;;;7.25;60.70
19748;BME280;10032;51.386;12.516;2023-02-28T12:24:07;101652.00;;;7.54;60.17
19748;BME280;10032;51.386;12.516;2023-02-28T12:26:45;101644.28;;;7.72;60.04
19748;BME280;10032;51.386;12.516;2023-02-28T12:31:53;101647.22;;;7.77;59.72
19748;BME280;10032;51.386;12.516;2023-02-28T12:34:39;101643.00;;;7.68;58.03
19748;BME280;10032;51.386;12.516;2023-02-28T12:37:11;101639.59;;;7.60;58.36
19748;BME280;10032;51.386;12.516;2023-02-28T12:39:44;101646.94;;;7.45;57.10
19748;BME280;10032;51.386;12.516;2023-02-28T12:42:19;101639.63;;;7.39;57.77
19748;BME280;10032;51.386;12.516;2023-02-28T12:45:01;101637.38;;;7.42;56.90
19748;BME280;10032;51.386;12.516;2023-02-28T12:47:27;101627.63;;;7.20;56.57
19748;BME280;10032;51.386;12.516;2023-02-28T12:49:59;101627.13;;;7.17;56.47
19748;BME280;10032;51.386;12.516;2023-02-28T12:52:35;101626.88;;;7.12;56.90
19748;BME280;10032;51.386;12.516;2023-02-28T12:55:19;101620.78;;;7.03;56.02
19748;BME280;10032;51.386;12.516;2023-02-28T12:58:08;101628.13;;;6.95;57.84
19748;BME280;10032;51.386;12.516;2023-02-28T13:00:43;101616.38;;;6.81;56.63
19748;BME280;10032;51.386;12.516;2023-02-28T13:03:21;101619.25;;;6.94;57.07
19748;BME280;10032;51.386;12.516;2023-02-28T13:09:33;101611.03;;;7.02;57.67
19748;BME280;10032;51.386;12.516;2023-02-28T13:11:48;101615.84;;;7.07;56.36
19748;BME280;10032;51.386;12.516;2023-02-28T13:19:30;101610.34;;;6.79;56.79
19748;BME280;10032;51.386;12.516;2023-02-28T13:21:57;101605.72;;;6.73;57.73
19748;BME280;10032;51.386;12.516;2023-02-28T13:24:48;101615.75;;;6.65;55.82
19748;BME280;10032;51.386;12.516;2023-02-28T13:29:42;101604.69;;;6.74;56.83
19748;BME280;10032;51.386;12.516;2023-02-28T13:34:41;101610.94;;;6.60;57.42
19748;BME280;10032;51.386;12.516;2023-02-28T13:42:35;101604.38;;;6.48;59.10
19748;BME280;10032;51.386;12.516;2023-02-28T14:07:19;101579.31;;;6.33;60.14
19748;BME280;10032;51.386;12.516;2023-02-28T14:09:51;101582.13;;;6.25;60.17
19748;BME280;10032;51.386;12.516;2023-02-28T14:17:59;101585.94;;;6.02;61.73
19748;BME280;10032;51.386;12.516;2023-02-28T14:20:30;101582.09;;;6.11;61.43
19748;BME280;10032;51.386;12.516;2023-02-28T14:26:31;101569.41;;;6.05;61.19
19748;BME280;10032;51.386;12.516;2023-02-28T14:32:13;101573.13;;;6.04;62.60
19748;BME280;10032;51.386;12.516;2023-02-28T14:37:27;101574.16;;;6.03;61.83
19748;BME280;10032;51.386;12.516;2023-02-28T14:39:54;101573.69;;;6.14;62.97
19748;BME280;10032;51.386;12.516;2023-02-28T14:42:35;101579.41;;;6.11;63.36
19748;BME280;10032;51.386;12.516;2023-02-28T14:45:03;101580.91;;;6.13;62.21
19748;BME280;10032;51.386;12.516;2023-02-28T14:47:31;101572.19;;;6.11;61.14
19748;BME280;10032;51.386;12.516;2023-02-28T14:49:59;101573.22;;;6.10;61.94
19748;BME280;10032;51.386;12.516;2023-02-28T14:52:27;101573.47;;;6.01;62.49
19748;BME280;10032;51.386;12.516;2023-02-28T14:54:57;101566.25;;;6.01;62.62
19748;BME280;10032;51.386;12.516;2023-02-28T14:57:31;101564.19;;;5.89;62.71
19748;BME280;10032;51.386;12.516;2023-02-28T15:02:26;101574.22;;;5.80;62.77
19748;BME280;10032;51.386;12.516;2023-02-28T15:07:48;101562.91;;;5.85;62.94
19748;BME280;10032;51.386;12.516;2023-02-28T15:12:52;101555.03;;;5.83;64.90
19748;BME280;10032;51.386;12.516;2023-02-28T15:15:20;101566.03;;;5.88;65.38
19748;BME280;10032;51.386;12.516;2023-02-28T15:17:50;101565.06;;;5.89;63.38
19748;BME280;10032;51.386;12.516;2023-02-28T15:20:18;101562.16;;;5.91;63.68
19748;BME280;10032;51.386;12.516;2023-02-28T15:22:46;101575.34;;;5.86;63.66
19748;BME280;10032;51.386;12.516;2023-02-28T15:25:21;101567.00;;;5.81;64.48
19748;BME280;10032;51.386;12.516;2023-02-28T15:27:50;101559.81;;;5.73;65.89
19748;BME280;10032;51.386;12.516;2023-02-28T15:30:20;101562.22;;;5.68;65.72
19748;BME280;10032;51.386;12.516;2023-02-28T15:33:04;101568.63;;;5.67;65.71
19748;BME280;10032;51.386;12.516;2023-02-28T15:35:32;101567.59;;;5.68;66.77
19748;BME280;10032;51.386;12.516;2023-02-28T15:38:03;101570.63;;;5.65;67.06
19748;BME280;10032;51.386;12.516;2023-02-28T15:40:38;101570.75;;;5.72;66.59
19748;BME280;10032;51.386;12.516;2023-02-28T15:43:14;101566.56;;;5.69;66.05